createdAt,value
2022-09-03T00:01:59.423Z,57.87
2022-09-03T00:04:57.532Z,57.82
2022-09-03T00:07:44.275Z,58.02
2022-09-03T00:10:21.351Z,58.08
2022-09-03T00:12:54.532Z,58.39
2022-09-03T00:15:24.412Z,58.56
2022-09-03T00:17:59.051Z,58.72
2022-09-03T00:20:44.323Z,58.95
2022-09-03T00:23:19.931Z,58.91
2022-09-03T00:26:15.388Z,59.03
2022-09-03T00:29:06.836Z,59.16
2022-09-03T00:31:43.904Z,59.16
2022-09-03T00:34:15.970Z,59.06
2022-09-03T00:36:46.308Z,59.25
2022-09-03T00:39:20.201Z,59.28
2022-09-03T00:42:10.047Z,59.78
2022-09-03T00:45:06.824Z,59.67
2022-09-03T00:48:06.044Z,59.88
2022-09-03T00:51:00.416Z,60.04
2022-09-03T00:54:04.021Z,60.10
2022-09-03T00:57:02.755Z,60.08
2022-09-03T00:59:37.279Z,59.89
2022-09-03T01:02:11.518Z,60.04
2022-09-03T01:04:39.529Z,59.89
2022-09-03T01:07:46.395Z,59.77
2022-09-03T01:10:26.196Z,59.81
2022-09-03T01:13:08.675Z,60.00
2022-09-03T01:15:54.607Z,60.23
2022-09-03T01:18:53.558Z,60.02
2022-09-03T01:21:24.077Z,60.25
2022-09-03T01:24:46.445Z,60.56
2022-09-03T01:27:20.198Z,60.37
2022-09-03T01:29:55.832Z,60.41
2022-09-03T01:32:53.400Z,60.72
2022-09-03T01:35:28.843Z,60.53
2022-09-03T01:38:24.576Z,60.90
2022-09-03T01:41:24.597Z,61.22
2022-09-03T01:44:09.525Z,61.73
2022-09-03T01:46:41.155Z,61.80
2022-09-03T01:49:34.998Z,61.79
2022-09-03T01:52:51.078Z,61.80
2022-09-03T01:55:32.378Z,61.82
2022-09-03T01:58:13.153Z,61.96
2022-09-03T02:00:44.301Z,61.69
2022-09-03T02:03:15.312Z,61.94
2022-09-03T02:05:44.314Z,61.98
2022-09-03T02:08:12.301Z,62.02
2022-09-03T02:10:46.105Z,62.22
2022-09-03T02:13:19.814Z,62.46
2022-09-03T02:15:51.489Z,62.82
2022-09-03T02:18:25.748Z,63.00
2022-09-03T02:20:55.674Z,63.35
2022-09-03T02:23:27.771Z,63.36
2022-09-03T02:26:02.577Z,63.45
2022-09-03T02:28:32.672Z,64.10
2022-09-03T02:31:00.766Z,63.97
2022-09-03T02:33:29.945Z,64.41
2022-09-03T02:35:57.891Z,64.81
2022-09-03T02:38:26.838Z,65.19
2022-09-03T02:40:55.633Z,64.95
2022-09-03T02:43:39.513Z,65.53
2022-09-03T02:46:13.213Z,64.96
2022-09-03T02:48:41.160Z,65.23
2022-09-03T02:51:13.726Z,65.43
2022-09-03T02:53:43.690Z,65.32
2022-09-03T02:56:12.407Z,65.15
2022-09-03T02:58:41.071Z,65.13
2022-09-03T03:01:09.188Z,65.21
2022-09-03T03:03:37.219Z,65.63
2022-09-03T03:06:07.632Z,65.82
2022-09-03T03:08:35.603Z,65.84
2022-09-03T03:11:03.624Z,66.07
2022-09-03T03:13:32.123Z,66.30
2022-09-03T03:16:08.311Z,66.22
2022-09-03T03:18:36.482Z,66.66
2022-09-03T03:21:12.345Z,66.59
2022-09-03T03:23:40.622Z,66.47
2022-09-03T03:26:11.561Z,67.48
2022-09-03T03:28:39.713Z,67.72
2022-09-03T03:31:15.398Z,67.88
2022-09-03T03:33:44.713Z,68.26
2022-09-03T03:36:16.120Z,68.12
2022-09-03T03:38:45.165Z,68.09
2022-09-03T03:41:13.072Z,68.43
2022-09-03T03:43:41.019Z,68.40
2022-09-03T03:46:10.848Z,69.52
2022-09-03T03:48:39.606Z,69.04
2022-09-03T03:51:09.891Z,69.10
2022-09-03T03:53:38.971Z,68.75
2022-09-03T03:56:10.318Z,68.77
2022-09-03T03:58:42.675Z,68.39
2022-09-03T04:01:14.450Z,68.86
2022-09-03T04:03:43.637Z,68.92
2022-09-03T04:06:14.177Z,69.54
2022-09-03T04:08:44.220Z,69.51
2022-09-03T04:11:18.110Z,69.63
2022-09-03T04:13:47.521Z,69.94
2022-09-03T04:16:18.812Z,70.26
2022-09-03T04:18:49.424Z,70.38
2022-09-03T04:21:20.582Z,70.94
2022-09-03T04:23:51.138Z,70.61
2022-09-03T04:26:31.843Z,70.38
2022-09-03T04:29:02.568Z,70.46
2022-09-03T04:31:31.817Z,70.60
2022-09-03T04:34:00.080Z,70.72
2022-09-03T04:36:30.127Z,70.78
2022-09-03T04:39:01.987Z,70.56
2022-09-03T04:41:31.672Z,71.34
2022-09-03T04:44:00.078Z,71.87
2022-09-03T04:46:34.066Z,72.05
2022-09-03T04:49:02.886Z,71.90
2022-09-03T04:51:31.941Z,72.12
2022-09-03T04:54:01.896Z,72.31
2022-09-03T04:56:33.105Z,72.07
2022-09-03T04:59:03.976Z,71.78
2022-09-03T05:01:33.673Z,72.19
2022-09-03T05:04:02.205Z,72.21
2022-09-03T05:06:31.687Z,71.88
2022-09-03T05:09:00.273Z,72.14
2022-09-03T05:11:30.931Z,72.28
2022-09-03T05:14:00.592Z,72.18
2022-09-03T05:16:31.208Z,72.41
2022-09-03T05:19:01.070Z,72.11
2022-09-03T05:21:30.121Z,72.25
2022-09-03T05:24:00.044Z,72.45
2022-09-03T05:26:30.693Z,72.44
2022-09-03T05:29:02.116Z,72.38
2022-09-03T05:31:32.130Z,72.26
2022-09-03T05:34:03.059Z,72.39
2022-09-03T05:36:34.872Z,72.59
2022-09-03T05:39:04.626Z,72.75
2022-09-03T05:41:34.234Z,72.91
2022-09-03T05:44:03.954Z,73.02
2022-09-03T05:46:33.745Z,73.48
2022-09-03T05:49:03.205Z,73.41
2022-09-03T05:51:32.161Z,73.60
2022-09-03T05:54:00.527Z,73.37
2022-09-03T05:56:30.809Z,73.81
2022-09-03T05:59:02.122Z,73.93
2022-09-03T06:01:33.276Z,73.76
2022-09-03T06:04:04.187Z,73.79
2022-09-03T06:06:34.739Z,73.75
2022-09-03T06:09:05.898Z,73.98
2022-09-03T06:11:36.116Z,74.15
2022-09-03T06:14:06.805Z,74.26
2022-09-03T06:16:39.723Z,74.45
2022-09-03T06:19:10.947Z,74.32
2022-09-03T06:21:44.766Z,74.16
2022-09-03T06:24:18.071Z,74.50
2022-09-03T06:26:46.816Z,74.64
2022-09-03T06:29:15.081Z,74.92
2022-09-03T06:31:43.056Z,74.53
2022-09-03T06:34:10.943Z,74.62
2022-09-03T06:36:41.558Z,74.66
2022-09-03T06:39:10.245Z,74.61
2022-09-03T06:41:38.646Z,74.47
2022-09-03T06:44:12.103Z,74.34
2022-09-03T06:46:44.335Z,74.44
2022-09-03T06:49:12.440Z,74.35
2022-09-03T06:51:40.864Z,74.32
2022-09-03T06:54:11.378Z,74.35
2022-09-03T06:56:41.799Z,74.07
2022-09-03T06:59:15.192Z,74.04
2022-09-03T07:01:46.193Z,73.85
2022-09-03T07:04:20.351Z,73.58
2022-09-03T07:06:48.558Z,73.19
2022-09-03T07:09:18.510Z,73.09
2022-09-03T07:11:48.403Z,73.24
2022-09-03T07:14:19.599Z,73.37
2022-09-03T07:16:49.655Z,73.00
2022-09-03T07:19:18.010Z,72.80
2022-09-03T07:21:50.125Z,72.55
2022-09-03T07:24:22.261Z,72.21
2022-09-03T07:26:51.174Z,72.13
2022-09-03T07:29:22.150Z,71.66
2022-09-03T07:31:52.590Z,71.68
2022-09-03T07:34:25.566Z,72.00
2022-09-03T07:36:55.074Z,72.14
2022-09-03T07:39:23.415Z,72.01
2022-09-03T07:41:52.053Z,71.92
2022-09-03T07:44:20.559Z,71.83
2022-09-03T07:46:52.510Z,71.53
2022-09-03T07:49:22.291Z,71.38
2022-09-03T07:51:52.516Z,71.16
2022-09-03T07:54:22.230Z,70.91
2022-09-03T07:56:50.177Z,70.55
2022-09-03T07:59:19.376Z,70.50
2022-09-03T08:01:47.334Z,70.57
2022-09-03T08:04:15.336Z,70.36
2022-09-03T08:06:43.314Z,70.22
2022-09-03T08:09:14.077Z,70.38
2022-09-03T08:11:43.838Z,70.30
2022-09-03T08:14:13.816Z,70.28
2022-09-03T08:16:46.116Z,70.08
2022-09-03T08:19:15.573Z,69.90
2022-09-03T08:21:43.522Z,70.00
2022-09-03T08:24:14.714Z,69.69
2022-09-03T08:26:47.697Z,69.71
2022-09-03T08:29:22.566Z,69.78
2022-09-03T08:31:51.218Z,69.44
2022-09-03T08:34:20.098Z,69.42
2022-09-03T08:36:47.988Z,69.45
2022-09-03T08:39:16.865Z,69.61
2022-09-03T08:41:44.963Z,69.73
2022-09-03T08:44:47.347Z,69.73
2022-09-03T08:47:35.125Z,69.70
2022-09-03T08:50:17.588Z,69.62
2022-09-03T08:52:58.821Z,69.63
2022-09-03T08:55:28.288Z,69.21
2022-09-03T08:58:04.922Z,69.16
2022-09-03T09:01:32.671Z,69.08
2022-09-03T09:04:51.931Z,68.95
2022-09-03T09:07:34.862Z,69.17
2022-09-03T09:10:17.051Z,68.61
2022-09-03T09:13:20.377Z,67.71
2022-09-03T09:16:14.339Z,67.45
2022-09-03T09:19:26.707Z,67.24
2022-09-03T09:22:02.908Z,67.29
2022-09-03T09:24:40.674Z,67.28
2022-09-03T09:27:12.837Z,67.49
2022-09-03T09:29:48.418Z,67.25
2022-09-03T09:32:19.481Z,66.98
2022-09-03T09:34:52.218Z,67.24
2022-09-03T09:37:21.752Z,67.16
2022-09-03T09:40:01.033Z,66.92
2022-09-03T09:42:31.260Z,66.94
2022-09-03T09:45:11.361Z,66.61
2022-09-03T09:47:40.693Z,66.77
2022-09-03T09:50:25.091Z,66.14
2022-09-03T09:53:04.467Z,66.23
2022-09-03T09:55:32.920Z,66.06
2022-09-03T09:58:14.098Z,66.08
2022-09-03T10:00:43.098Z,66.40
2022-09-03T10:03:14.082Z,66.29
2022-09-03T10:05:44.053Z,66.18
2022-09-03T10:08:22.222Z,66.06
2022-09-03T10:10:51.903Z,66.29
2022-09-03T10:13:26.831Z,66.43
2022-09-03T10:16:21.868Z,66.49
2022-09-03T10:19:09.669Z,66.85
2022-09-03T10:22:06.175Z,66.88
2022-09-03T10:25:01.286Z,66.78
2022-09-03T10:27:30.253Z,66.84
2022-09-03T10:30:00.806Z,67.01
2022-09-03T10:32:41.920Z,66.89
2022-09-03T10:35:21.911Z,66.69
2022-09-03T10:38:03.903Z,66.59
2022-09-03T10:40:49.099Z,66.48
2022-09-03T10:43:22.665Z,66.32
2022-09-03T10:46:24.355Z,66.25
2022-09-03T10:49:24.901Z,66.31
2022-09-03T10:51:59.996Z,66.40
2022-09-03T10:54:36.737Z,66.61
2022-09-03T10:57:32.128Z,66.53
2022-09-03T11:00:19.825Z,66.44
2022-09-03T11:03:31.561Z,66.52
2022-09-03T11:06:19.524Z,66.60
2022-09-03T11:09:22.218Z,66.85
2022-09-03T11:11:57.594Z,66.92
2022-09-03T11:14:50.988Z,66.83
2022-09-03T11:17:30.287Z,66.78
2022-09-03T11:20:23.626Z,66.50
2022-09-03T11:23:01.961Z,66.63
2022-09-03T11:25:36.269Z,66.37
2022-09-03T11:28:45.573Z,66.23
2022-09-03T11:31:19.041Z,66.17
2022-09-03T11:34:05.103Z,66.24
2022-09-03T11:36:38.837Z,66.10
2022-09-03T11:39:33.041Z,66.10
2022-09-03T11:42:27.839Z,65.97
2022-09-03T11:45:01.820Z,65.73
2022-09-03T11:47:44.759Z,65.54
2022-09-03T11:51:04.606Z,65.52
2022-09-03T11:53:36.812Z,65.11
2022-09-03T11:56:04.817Z,64.90
2022-09-03T11:58:37.322Z,64.80
2022-09-03T12:01:18.392Z,64.39
2022-09-03T12:03:54.213Z,64.18
2022-09-03T12:07:01.266Z,63.66
2022-09-03T12:10:00.354Z,63.71
2022-09-03T12:12:49.384Z,62.89
2022-09-03T12:15:43.609Z,62.15
2022-09-03T12:18:20.267Z,61.20
2022-09-03T12:21:17.086Z,60.09
2022-09-03T12:23:49.459Z,59.62
2022-09-03T12:26:19.985Z,58.70
2022-09-03T12:28:51.940Z,58.36
2022-09-03T12:31:25.619Z,57.99
2022-09-03T12:33:57.514Z,57.71
2022-09-03T12:36:27.213Z,56.91
2022-09-03T12:39:11.638Z,55.67
2022-09-03T12:41:53.249Z,56.04
2022-09-03T12:44:32.552Z,54.76
2022-09-03T12:50:09.628Z,53.27
2022-09-03T12:52:52.271Z,54.19
2022-09-03T12:55:43.872Z,53.83
2022-09-03T12:58:35.799Z,53.32
2022-09-03T13:01:31.981Z,52.86
2022-09-03T13:04:12.549Z,53.29
2022-09-03T13:06:53.525Z,52.19
2022-09-03T13:09:25.019Z,53.07
2022-09-03T13:11:55.593Z,53.53
2022-09-03T13:14:26.999Z,52.75
2022-09-03T13:17:28.702Z,52.50
2022-09-03T13:20:20.684Z,52.49
2022-09-03T13:23:27.121Z,52.49
2022-09-03T13:26:16.393Z,51.86
2022-09-03T13:29:15.890Z,51.86
2022-09-03T13:31:53.501Z,51.01
2022-09-03T13:34:35.850Z,50.70
2022-09-03T13:37:28.786Z,51.11
2022-09-03T13:40:12.056Z,50.97
2022-09-03T13:42:44.668Z,50.02
2022-09-03T13:45:37.975Z,50.04
2022-09-03T13:48:34.540Z,49.90
2022-09-03T13:51:28.020Z,49.91
2022-09-03T13:53:55.937Z,49.60
2022-09-03T13:56:49.868Z,49.57
2022-09-03T13:59:25.698Z,49.32
2022-09-03T14:02:31.616Z,48.96
2022-09-03T14:05:06.787Z,49.10
2022-09-03T14:07:35.699Z,49.28
2022-09-03T14:10:21.593Z,48.64
2022-09-03T14:13:14.083Z,49.07
2022-09-03T14:15:50.273Z,48.41
2022-09-03T14:18:38.729Z,48.15
2022-09-03T14:21:22.880Z,48.21
2022-09-03T14:24:21.009Z,47.68
2022-09-03T14:27:02.634Z,48.27
2022-09-03T14:29:33.389Z,47.59
2022-09-03T14:32:23.319Z,47.97
2022-09-03T14:35:10.727Z,47.58
2022-09-03T14:38:12.474Z,47.41
2022-09-03T14:40:47.091Z,46.91
2022-09-03T14:43:36.347Z,46.90
2022-09-03T14:46:07.234Z,47.43
2022-09-03T14:49:02.514Z,46.84
2022-09-03T14:52:04.935Z,46.39
2022-09-03T14:55:00.255Z,46.68
2022-09-03T14:57:41.172Z,46.47
2022-09-03T15:00:20.029Z,46.48
2022-09-03T15:03:03.662Z,46.16
2022-09-03T15:05:41.080Z,46.12
2022-09-03T15:08:28.723Z,46.07
2022-09-03T15:11:02.317Z,46.39
2022-09-03T15:13:46.552Z,46.57
2022-09-03T15:16:52.427Z,46.75
2022-09-03T15:19:48.517Z,47.00
2022-09-03T15:22:39.778Z,47.00
2022-09-03T15:25:13.989Z,47.46
2022-09-03T15:27:51.178Z,47.50
2022-09-03T15:30:21.176Z,48.24
2022-09-03T15:32:55.177Z,48.69
2022-09-03T15:35:35.061Z,49.04
2022-09-03T15:38:13.956Z,49.12
2022-09-03T15:40:52.157Z,49.69
2022-09-03T15:43:30.858Z,49.85
2022-09-03T15:46:13.847Z,49.83
2022-09-03T15:49:03.200Z,49.67
2022-09-03T15:51:36.940Z,49.65
2022-09-03T15:54:16.215Z,50.02
2022-09-03T15:57:12.480Z,50.18
2022-09-03T16:00:11.493Z,50.42
2022-09-03T16:02:49.501Z,50.76
2022-09-03T16:05:23.965Z,51.16
2022-09-03T16:08:21.785Z,51.21
2022-09-03T16:11:07.959Z,51.26
2022-09-03T16:14:37.635Z,51.25
2022-09-03T16:17:30.101Z,51.25
2022-09-03T16:19:58.029Z,51.35
2022-09-03T16:22:34.311Z,51.47
2022-09-03T16:25:13.267Z,51.59
2022-09-03T16:28:14.726Z,51.64
2022-09-03T16:31:36.851Z,51.68
2022-09-03T16:34:39.827Z,51.47
2022-09-03T16:37:54.771Z,51.35
2022-09-03T16:40:57.143Z,50.98
2022-09-03T16:43:41.431Z,50.68
2022-09-03T16:46:24.982Z,50.62
2022-09-03T16:49:11.583Z,50.75
2022-09-03T16:52:05.011Z,50.35
2022-09-03T16:54:54.757Z,50.45
2022-09-03T16:57:46.554Z,50.59
2022-09-03T17:00:21.097Z,50.38
2022-09-03T17:03:26.128Z,50.39
2022-09-03T17:06:12.771Z,50.54
2022-09-03T17:08:46.445Z,50.73
2022-09-03T17:11:37.784Z,50.85
2022-09-03T17:14:47.587Z,51.15
2022-09-03T17:17:32.621Z,51.32
2022-09-03T17:20:40.020Z,51.71
2022-09-03T17:23:33.893Z,52.03
2022-09-03T17:26:21.362Z,52.21
2022-09-03T17:29:10.749Z,52.82
2022-09-03T17:32:04.757Z,53.15
2022-09-03T17:34:51.489Z,53.40
2022-09-03T17:37:40.624Z,53.59
2022-09-03T17:40:11.473Z,54.36
2022-09-03T17:43:13.238Z,54.69
2022-09-03T17:45:41.263Z,55.19
2022-09-03T17:48:29.285Z,55.81
2022-09-03T17:51:11.761Z,56.41
2022-09-03T17:53:50.741Z,58.13
2022-09-03T17:56:21.383Z,58.55
2022-09-03T17:59:04.752Z,58.77
2022-09-03T18:01:38.084Z,60.35
2022-09-03T18:04:20.148Z,59.59
2022-09-03T18:06:59.936Z,59.56
2022-09-03T18:09:40.253Z,59.98
2022-09-03T18:12:37.065Z,60.79
2022-09-03T18:15:15.466Z,61.26
2022-09-03T18:17:51.813Z,61.68
2022-09-03T18:20:41.579Z,62.13
2022-09-03T18:23:45.076Z,62.61
2022-09-03T18:26:43.442Z,63.40
2022-09-03T18:29:54.150Z,62.92
2022-09-03T18:32:41.441Z,63.22
2022-09-03T18:35:28.621Z,63.42
2022-09-03T18:38:15.225Z,64.09
2022-09-03T18:41:18.175Z,64.83
2022-09-03T18:44:31.707Z,65.24
2022-09-03T18:50:48.881Z,66.08
2022-09-03T18:53:58.925Z,65.94
2022-09-03T18:56:51.980Z,66.69
2022-09-03T19:00:04.215Z,67.80
2022-09-03T19:03:13.476Z,67.63
2022-09-03T19:06:34.614Z,67.71
2022-09-03T19:09:30.953Z,67.58
2022-09-03T19:12:37.935Z,68.63
2022-09-03T19:15:33.009Z,68.71
2022-09-03T19:19:03.795Z,69.00
2022-09-03T19:21:59.945Z,68.95
2022-09-03T19:24:50.243Z,69.23
2022-09-03T19:27:59.860Z,69.67
2022-09-03T19:31:15.681Z,69.59
2022-09-03T19:34:21.018Z,70.47
2022-09-03T19:37:35.094Z,70.33
2022-09-03T19:40:44.558Z,70.59
2022-09-03T19:43:38.342Z,71.36
2022-09-03T19:46:35.137Z,71.50
2022-09-03T19:49:57.132Z,71.33
2022-09-03T19:52:49.918Z,71.86
2022-09-03T19:55:44.322Z,71.77
2022-09-03T19:58:43.670Z,71.79
2022-09-03T20:01:32.550Z,72.07
2022-09-03T20:04:31.276Z,72.37
2022-09-03T20:07:25.639Z,71.93
2022-09-03T20:10:16.995Z,72.20
2022-09-03T20:12:50.837Z,73.02
2022-09-03T20:15:23.791Z,73.18
2022-09-03T20:18:10.049Z,73.55
2022-09-03T20:20:38.769Z,73.52
2022-09-03T20:23:17.626Z,73.30
2022-09-03T20:25:54.873Z,73.64
2022-09-03T20:28:36.242Z,73.64
2022-09-03T20:31:16.174Z,73.54
2022-09-03T20:34:08.828Z,73.43
2022-09-03T20:37:19.590Z,74.02
2022-09-03T20:39:55.251Z,73.82
2022-09-03T20:43:08.186Z,73.77
2022-09-03T20:46:01.193Z,73.92
2022-09-03T20:49:13.455Z,74.08
2022-09-03T20:51:53.472Z,74.31
2022-09-03T20:54:32.122Z,74.74
2022-09-03T20:57:26.734Z,75.06
2022-09-03T21:00:04.185Z,75.22
2022-09-03T21:02:48.591Z,75.20
2022-09-03T21:05:43.449Z,75.33
2022-09-03T21:08:19.752Z,74.96
2022-09-03T21:10:56.521Z,74.65
2022-09-03T21:13:24.588Z,75.02
2022-09-03T21:16:03.691Z,75.82
2022-09-03T21:18:42.515Z,75.74
2022-09-03T21:21:41.557Z,76.02
2022-09-03T21:24:20.175Z,75.49
2022-09-03T21:26:53.824Z,75.55
2022-09-03T21:29:26.403Z,75.20
2022-09-03T21:32:11.613Z,75.24
2022-09-03T21:35:18.643Z,75.21
2022-09-03T21:38:05.661Z,75.36
2022-09-03T21:40:54.507Z,74.93
2022-09-03T21:43:34.009Z,75.24
2022-09-03T21:46:05.381Z,75.15
2022-09-03T21:49:15.380Z,75.60
2022-09-03T21:52:01.397Z,75.56
2022-09-03T21:54:33.748Z,75.47
2022-09-03T21:57:28.223Z,75.70
2022-09-03T22:00:07.936Z,75.58
2022-09-03T22:02:42.401Z,75.72
2022-09-03T22:05:10.607Z,76.54
2022-09-03T22:07:44.458Z,76.42
2022-09-03T22:10:38.625Z,76.64
2022-09-03T22:13:14.951Z,76.61
2022-09-03T22:15:51.464Z,76.63
2022-09-03T22:18:28.830Z,76.66
2022-09-03T22:21:03.108Z,77.14
2022-09-03T22:23:43.732Z,77.39
2022-09-03T22:26:49.372Z,77.22
2022-09-03T22:29:52.388Z,77.55
2022-09-03T22:32:45.819Z,77.78
2022-09-03T22:35:36.741Z,77.71
2022-09-03T22:38:42.478Z,77.63
2022-09-03T22:41:41.281Z,77.60
2022-09-03T22:44:22.519Z,77.80
2022-09-03T22:47:21.899Z,77.88
2022-09-03T22:50:20.981Z,77.71
2022-09-03T22:52:51.875Z,77.49
2022-09-03T22:55:23.447Z,77.58
2022-09-03T22:57:57.534Z,77.73
2022-09-03T23:00:26.115Z,77.50
2022-09-03T23:03:03.003Z,77.79
2022-09-03T23:05:43.323Z,77.49
2022-09-03T23:08:32.779Z,77.57
2022-09-03T23:11:23.241Z,78.05
2022-09-03T23:14:00.801Z,78.22
2022-09-03T23:16:30.398Z,78.12
2022-09-03T23:19:01.718Z,78.52
2022-09-03T23:21:41.561Z,79.09
2022-09-03T23:24:39.448Z,79.26
2022-09-03T23:27:14.333Z,79.32
2022-09-03T23:29:52.078Z,79.69
2022-09-03T23:32:20.178Z,79.42
2022-09-03T23:34:48.098Z,79.40
2022-09-03T23:37:34.881Z,79.53
2022-09-03T23:40:09.280Z,79.77
2022-09-03T23:42:58.663Z,79.91
2022-09-03T23:45:48.571Z,79.87
2022-09-03T23:48:38.474Z,80.00
2022-09-03T23:51:24.906Z,79.92
2022-09-03T23:54:11.162Z,80.19
2022-09-03T23:57:00.915Z,80.44
2022-09-03T23:59:43.026Z,80.99
